createdAt,value
2023-04-21T00:19:31.679Z,11.77
2023-04-21T00:44:23.886Z,10.23
2023-04-21T01:04:54.338Z,15.77
2023-04-21T01:30:35.935Z,12.80
2023-04-21T03:37:05.437Z,12.10
2023-04-21T04:07:33.652Z,15.00
2023-04-21T06:31:37.795Z,9.97
2023-04-21T07:02:15.838Z,8.03
2023-04-21T07:32:52.473Z,9.80
2023-04-21T07:57:40.330Z,8.63
2023-04-21T08:18:18.217Z,6.43
2023-04-21T08:38:50.642Z,4.23
2023-04-21T08:59:12.867Z,4.10
2023-04-21T09:24:20.617Z,4.07
2023-04-21T09:54:28.383Z,4.83
2023-04-21T10:19:51.505Z,5.37
2023-04-21T11:05:37.016Z,4.23
2023-04-21T11:45:48.617Z,5.90
2023-04-21T12:06:31.618Z,8.73
2023-04-21T13:01:51.924Z,4.80
2023-04-21T13:22:16.023Z,3.50
2023-04-21T13:52:36.662Z,3.78
2023-04-21T14:18:01.259Z,2.83
2023-04-21T14:48:18.679Z,6.03
2023-04-21T15:14:08.782Z,6.07
2023-04-21T15:44:47.071Z,7.13
2023-04-21T16:10:01.055Z,3.73
2023-04-21T16:34:58.510Z,5.63
2023-04-21T17:00:22.070Z,15.57
2023-04-21T17:25:39.042Z,7.10
2023-04-21T17:51:19.862Z,10.33
2023-04-21T18:16:40.513Z,12.70
2023-04-21T18:51:41.250Z,11.30
2023-04-21T19:17:28.440Z,10.60
2023-04-21T19:42:54.376Z,10.37
2023-04-21T20:12:54.814Z,13.00
2023-04-21T20:43:12.432Z,22.30
2023-04-21T21:13:35.026Z,21.90
2023-04-21T21:49:05.818Z,19.20
2023-04-21T23:00:42.256Z,21.37
2023-04-21T23:30:32.127Z,19.03
2023-04-21T23:51:01.156Z,12.43
